sensor_id;sensor_type;location;lat;lon;timestamp;pressure;altitude;pressure_sealevel;temperature;humidity
80798;BME280;70202;52.238;10.680;2023-07-02T00:00:43;99146.88;;;17.74;74.52
80798;BME280;70202;52.238;10.680;2023-07-02T00:01:44;99144.13;;;17.74;74.41
80798;BME280;70202;52.238;10.680;2023-07-02T00:02:44;99145.09;;;17.73;74.78
80798;BME280;70202;52.238;10.680;2023-07-02T00:03:44;99150.63;;;17.73;74.61
80798;BME280;70202;52.238;10.680;2023-07-02T00:04:45;99152.50;;;17.72;74.75
80798;BME280;70202;52.238;10.680;2023-07-02T00:05:45;99150.63;;;17.73;74.90
80798;BME280;70202;52.238;10.680;2023-07-02T00:06:46;99141.47;;;17.72;74.72
80798;BME280;70202;52.238;10.680;2023-07-02T00:07:47;99124.28;;;17.59;75.07
80798;BME280;70202;52.238;10.680;2023-07-02T00:08:47;99149.75;;;17.72;74.71
80798;BME280;70202;52.238;10.680;2023-07-02T00:09:47;99152.50;;;17.72;74.98
80798;BME280;70202;52.238;10.680;2023-07-02T00:10:48;99126.75;;;17.62;75.01
80798;BME280;70202;52.238;10.680;2023-07-02T00:11:48;98990.19;;;16.76;74.93
80798;BME280;70202;52.238;10.680;2023-07-02T00:12:49;99143.63;;;17.69;75.20
80798;BME280;70202;52.238;10.680;2023-07-02T00:13:49;99147.00;;;17.72;74.93
80798;BME280;70202;52.238;10.680;2023-07-02T00:14:50;99144.22;;;17.72;74.83
80798;BME280;70202;52.238;10.680;2023-07-02T00:15:53;99143.38;;;17.72;75.18
80798;BME280;70202;52.238;10.680;2023-07-02T00:16:53;99142.50;;;17.71;74.98
80798;BME280;70202;52.238;10.680;2023-07-02T00:17:53;99135.97;;;17.72;75.08
80798;BME280;70202;52.238;10.680;2023-07-02T00:18:57;99126.47;;;17.65;74.88
80798;BME280;70202;52.238;10.680;2023-07-02T00:19:57;99140.47;;;17.73;74.79
80798;BME280;70202;52.238;10.680;2023-07-02T00:21:06;99134.09;;;17.73;74.95
80798;BME280;70202;52.238;10.680;2023-07-02T00:22:07;99135.97;;;17.72;74.96
80798;BME280;70202;52.238;10.680;2023-07-02T00:23:08;99138.72;;;17.72;74.80
80798;BME280;70202;52.238;10.680;2023-07-02T00:24:10;99141.47;;;17.72;74.81
80798;BME280;70202;52.238;10.680;2023-07-02T00:25:12;99145.25;;;17.71;74.98
80798;BME280;70202;52.238;10.680;2023-07-02T00:26:13;99148.00;;;17.71;74.87
80798;BME280;70202;52.238;10.680;2023-07-02T00:27:14;99148.88;;;17.72;74.91
80798;BME280;70202;52.238;10.680;2023-07-02T00:28:14;99155.25;;;17.72;74.96
80798;BME280;70202;52.238;10.680;2023-07-02T00:29:14;99145.25;;;17.71;74.78
80798;BME280;70202;52.238;10.680;2023-07-02T00:30:15;99142.59;;;17.70;74.69
80798;BME280;70202;52.238;10.680;2023-07-02T00:31:15;99141.00;;;17.67;74.67
80798;BME280;70202;52.238;10.680;2023-07-02T00:32:16;99144.50;;;17.69;74.73
80798;BME280;70202;52.238;10.680;2023-07-02T00:33:16;99142.75;;;17.68;74.50
80798;BME280;70202;52.238;10.680;2023-07-02T00:34:18;99149.28;;;17.67;74.51
80798;BME280;70202;52.238;10.680;2023-07-02T00:35:18;99150.25;;;17.66;74.68
80798;BME280;70202;52.238;10.680;2023-07-02T00:36:19;99143.41;;;17.61;74.50
80798;BME280;70202;52.238;10.680;2023-07-02T00:37:19;99147.66;;;17.65;74.50
80798;BME280;70202;52.238;10.680;2023-07-02T00:38:20;99138.06;;;17.59;74.51
80798;BME280;70202;52.238;10.680;2023-07-02T00:39:20;99146.78;;;17.64;74.38
80798;BME280;70202;52.238;10.680;2023-07-02T00:40:20;99153.31;;;17.63;74.52
80798;BME280;70202;52.238;10.680;2023-07-02T00:41:22;99149.69;;;17.63;74.43
80798;BME280;70202;52.238;10.680;2023-07-02T00:42:22;99149.78;;;17.61;74.41
80798;BME280;70202;52.238;10.680;2023-07-02T00:43:23;99123.59;;;17.46;74.24
80798;BME280;70202;52.238;10.680;2023-07-02T00:44:23;99148.91;;;17.61;74.41
80798;BME280;70202;52.238;10.680;2023-07-02T00:45:24;99149.06;;;17.59;74.52
80798;BME280;70202;52.238;10.680;2023-07-02T00:46:27;99136.09;;;17.50;74.43
80798;BME280;70202;52.238;10.680;2023-07-02T00:47:28;99152.78;;;17.58;74.37
80798;BME280;70202;52.238;10.680;2023-07-02T00:48:29;99158.31;;;17.58;74.27
80798;BME280;70202;52.238;10.680;2023-07-02T00:49:30;99156.47;;;17.59;74.55
80798;BME280;70202;52.238;10.680;2023-07-02T00:50:30;99135.59;;;17.45;74.61
80798;BME280;70202;52.238;10.680;2023-07-02T00:51:31;99157.31;;;17.59;74.60
80798;BME280;70202;52.238;10.680;2023-07-02T00:52:31;99163.81;;;17.58;75.07
80798;BME280;70202;52.238;10.680;2023-07-02T00:53:32;99161.06;;;17.58;74.35
80798;BME280;70202;52.238;10.680;2023-07-02T00:54:32;99162.06;;;17.57;74.45
80798;BME280;70202;52.238;10.680;2023-07-02T00:55:33;99135.59;;;17.45;74.35
80798;BME280;70202;52.238;10.680;2023-07-02T00:56:33;99148.19;;;17.59;74.58
80798;BME280;70202;52.238;10.680;2023-07-02T00:57:33;99161.06;;;17.58;74.40
80798;BME280;70202;52.238;10.680;2023-07-02T00:58:38;99159.22;;;17.59;74.41
80798;BME280;70202;52.238;10.680;2023-07-02T00:59:39;99132.97;;;17.43;74.47
80798;BME280;70202;52.238;10.680;2023-07-02T01:00:39;99156.56;;;17.57;74.36
80798;BME280;70202;52.238;10.680;2023-07-02T01:01:40;99157.59;;;17.56;74.45
80798;BME280;70202;52.238;10.680;2023-07-02T01:02:40;99163.09;;;17.56;74.25
80798;BME280;70202;52.238;10.680;2023-07-02T01:03:57;99163.09;;;17.56;74.40
80798;BME280;70202;52.238;10.680;2023-07-02T01:04:59;99158.59;;;17.55;74.80
80798;BME280;70202;52.238;10.680;2023-07-02T01:05:59;99150.44;;;17.54;74.23
80798;BME280;70202;52.238;10.680;2023-07-02T01:07:03;99155.09;;;17.53;74.05
80798;BME280;70202;52.238;10.680;2023-07-02T01:08:08;99154.22;;;17.53;74.34
80798;BME280;70202;52.238;10.680;2023-07-02T01:09:11;99139.22;;;17.45;74.12
80798;BME280;70202;52.238;10.680;2023-07-02T01:10:11;99144.22;;;17.52;74.28
80798;BME280;70202;52.238;10.680;2023-07-02T01:11:11;99143.34;;;17.51;74.19
80798;BME280;70202;52.238;10.680;2023-07-02T01:12:12;99137.84;;;17.51;74.01
80798;BME280;70202;52.238;10.680;2023-07-02T01:13:15;99130.59;;;17.50;74.04
80798;BME280;70202;52.238;10.680;2023-07-02T01:14:19;99113.09;;;17.40;74.12
80798;BME280;70202;52.238;10.680;2023-07-02T01:15:22;99129.69;;;17.49;73.84
80798;BME280;70202;52.238;10.680;2023-07-02T01:16:22;99110.59;;;17.37;73.94
80798;BME280;70202;52.238;10.680;2023-07-02T01:17:23;99118.81;;;17.48;73.84
80798;BME280;70202;52.238;10.680;2023-07-02T01:18:24;99120.69;;;17.47;73.88
80798;BME280;70202;52.238;10.680;2023-07-02T01:20:34;99123.47;;;17.47;73.65
80798;BME280;70202;52.238;10.680;2023-07-02T01:21:36;99129.09;;;17.46;73.85
80798;BME280;70202;52.238;10.680;2023-07-02T01:22:36;99129.09;;;17.46;73.71
80798;BME280;70202;52.238;10.680;2023-07-02T01:23:37;99130.97;;;17.45;73.66
80798;BME280;70202;52.238;10.680;2023-07-02T01:24:41;99097.63;;;17.28;73.71
80798;BME280;70202;52.238;10.680;2023-07-02T01:25:42;99130.09;;;17.45;73.78
80798;BME280;70202;52.238;10.680;2023-07-02T01:26:45;99132.84;;;17.45;73.64
80798;BME280;70202;52.238;10.680;2023-07-02T01:27:45;99130.22;;;17.43;73.78
80798;BME280;70202;52.238;10.680;2023-07-02T01:28:46;99126.47;;;17.44;73.52
80798;BME280;70202;52.238;10.680;2023-07-02T01:29:50;99127.34;;;17.45;73.52
80798;BME280;70202;52.238;10.680;2023-07-02T01:30:50;99133.84;;;17.44;73.31
80798;BME280;70202;52.238;10.680;2023-07-02T01:31:51;99142.13;;;17.44;73.53
80798;BME280;70202;52.238;10.680;2023-07-02T01:32:51;99137.47;;;17.44;73.37
80798;BME280;70202;52.238;10.680;2023-07-02T01:33:52;99135.75;;;17.43;73.58
80798;BME280;70202;52.238;10.680;2023-07-02T01:34:53;99121.03;;;17.33;73.33
80798;BME280;70202;52.238;10.680;2023-07-02T01:35:53;99110.06;;;17.22;73.10
80798;BME280;70202;52.238;10.680;2023-07-02T01:36:54;99131.34;;;17.41;73.36
80798;BME280;70202;52.238;10.680;2023-07-02T01:37:54;99137.88;;;17.40;73.37
80798;BME280;70202;52.238;10.680;2023-07-02T01:38:54;99139.75;;;17.39;73.45
80798;BME280;70202;52.238;10.680;2023-07-02T01:39:55;99136.38;;;17.36;73.47
80798;BME280;70202;52.238;10.680;2023-07-02T01:40:55;99128.38;;;17.33;73.27
80798;BME280;70202;52.238;10.680;2023-07-02T01:42:07;99122.41;;;17.28;73.00
80798;BME280;70202;52.238;10.680;2023-07-02T01:43:08;99148.28;;;17.36;73.15
80798;BME280;70202;52.238;10.680;2023-07-02T01:44:08;99144.66;;;17.36;73.03
80798;BME280;70202;52.238;10.680;2023-07-02T01:45:09;99141.28;;;17.32;73.11
80798;BME280;70202;52.238;10.680;2023-07-02T01:46:09;99135.44;;;17.26;73.06
80798;BME280;70202;52.238;10.680;2023-07-02T01:47:10;99145.91;;;17.32;72.88
80798;BME280;70202;52.238;10.680;2023-07-02T01:48:10;99145.91;;;17.32;72.90
80798;BME280;70202;52.238;10.680;2023-07-02T01:49:10;99142.69;;;17.27;72.79
80798;BME280;70202;52.238;10.680;2023-07-02T01:50:11;99141.69;;;17.28;72.81
80798;BME280;70202;52.238;10.680;2023-07-02T01:51:11;99143.09;;;17.22;72.85
80798;BME280;70202;52.238;10.680;2023-07-02T01:52:12;99139.19;;;17.24;72.60
80798;BME280;70202;52.238;10.680;2023-07-02T01:53:12;99131.72;;;17.15;72.77
80798;BME280;70202;52.238;10.680;2023-07-02T01:54:12;99153.22;;;17.21;72.80
80798;BME280;70202;52.238;10.680;2023-07-02T01:55:13;99144.09;;;17.21;72.73
80798;BME280;70202;52.238;10.680;2023-07-02T01:56:13;99154.34;;;17.19;72.73
80798;BME280;70202;52.238;10.680;2023-07-02T01:57:13;99162.75;;;17.17;72.57
80798;BME280;70202;52.238;10.680;2023-07-02T01:58:14;99149.22;;;17.14;72.58
80798;BME280;70202;52.238;10.680;2023-07-02T01:59:15;99162.13;;;17.14;72.82
80798;BME280;70202;52.238;10.680;2023-07-02T02:00:17;99150.34;;;17.12;72.82
80798;BME280;70202;52.238;10.680;2023-07-02T02:01:17;99162.50;;;17.09;72.82
80798;BME280;70202;52.238;10.680;2023-07-02T02:02:18;99157.00;;;17.09;72.67
80798;BME280;70202;52.238;10.680;2023-07-02T02:03:18;99153.50;;;17.07;72.80
80798;BME280;70202;52.238;10.680;2023-07-02T02:04:19;99160.00;;;17.06;72.56
80798;BME280;70202;52.238;10.680;2023-07-02T02:05:19;99158.41;;;17.04;72.48
80798;BME280;70202;52.238;10.680;2023-07-02T02:06:19;99121.56;;;16.84;72.74
80798;BME280;70202;52.238;10.680;2023-07-02T02:07:20;99148.16;;;16.94;72.69
80798;BME280;70202;52.238;10.680;2023-07-02T02:08:21;99165.16;;;16.99;72.70
80798;BME280;70202;52.238;10.680;2023-07-02T02:09:21;99150.66;;;16.97;72.63
80798;BME280;70202;52.238;10.680;2023-07-02T02:10:21;99146.16;;;16.96;72.66
80798;BME280;70202;52.238;10.680;2023-07-02T02:11:22;99123.53;;;16.82;72.52
80798;BME280;70202;52.238;10.680;2023-07-02T02:12:22;99127.69;;;16.87;72.67
80798;BME280;70202;52.238;10.680;2023-07-02T02:13:23;99148.44;;;16.91;72.81
80798;BME280;70202;52.238;10.680;2023-07-02T02:14:23;99152.16;;;16.90;72.97
80798;BME280;70202;52.238;10.680;2023-07-02T02:15:24;99135.94;;;16.87;72.42
80798;BME280;70202;52.238;10.680;2023-07-02T02:16:25;99140.44;;;16.88;72.62
80798;BME280;70202;52.238;10.680;2023-07-02T02:17:25;99137.66;;;16.88;72.58
80798;BME280;70202;52.238;10.680;2023-07-02T02:18:25;99147.81;;;16.88;72.59
80798;BME280;70202;52.238;10.680;2023-07-02T02:19:26;99153.31;;;16.88;72.77
80798;BME280;70202;52.238;10.680;2023-07-02T02:20:26;99155.19;;;16.87;72.69
80798;BME280;70202;52.238;10.680;2023-07-02T02:21:27;99151.66;;;16.85;72.70
80798;BME280;70202;52.238;10.680;2023-07-02T02:22:27;99156.31;;;16.85;72.61
80798;BME280;70202;52.238;10.680;2023-07-02T02:23:28;99156.44;;;16.83;72.61
80798;BME280;70202;52.238;10.680;2023-07-02T02:24:28;99159.31;;;16.82;72.62
80798;BME280;70202;52.238;10.680;2023-07-02T02:25:29;99159.56;;;16.79;72.86
80798;BME280;70202;52.238;10.680;2023-07-02T02:26:29;99157.81;;;16.78;72.93
80798;BME280;70202;52.238;10.680;2023-07-02T02:27:30;99167.94;;;16.77;72.48
80798;BME280;70202;52.238;10.680;2023-07-02T02:28:30;99175.47;;;16.75;73.26
80798;BME280;70202;52.238;10.680;2023-07-02T02:29:31;99173.72;;;16.74;72.68
80798;BME280;70202;52.238;10.680;2023-07-02T02:30:31;99162.81;;;16.72;72.57
80798;BME280;70202;52.238;10.680;2023-07-02T02:31:32;99173.91;;;16.71;72.77
80798;BME280;70202;52.238;10.680;2023-07-02T02:32:32;99173.06;;;16.70;72.56
80798;BME280;70202;52.238;10.680;2023-07-02T02:33:34;99173.16;;;16.69;72.88
80798;BME280;70202;52.238;10.680;2023-07-02T02:34:35;99171.41;;;16.68;72.76
80798;BME280;70202;52.238;10.680;2023-07-02T02:35:35;99174.31;;;16.66;72.76
80798;BME280;70202;52.238;10.680;2023-07-02T02:36:36;99168.91;;;16.65;72.89
80798;BME280;70202;52.238;10.680;2023-07-02T02:37:38;99178.16;;;16.64;72.69
80798;BME280;70202;52.238;10.680;2023-07-02T02:38:39;99169.19;;;16.62;73.36
80798;BME280;70202;52.238;10.680;2023-07-02T02:39:40;99166.81;;;16.57;72.67
80798;BME280;70202;52.238;10.680;2023-07-02T02:40:40;99175.94;;;16.58;72.68
80798;BME280;70202;52.238;10.680;2023-07-02T02:41:41;99169.66;;;16.56;72.92
80798;BME280;70202;52.238;10.680;2023-07-02T02:42:41;99172.56;;;16.54;72.88
80798;BME280;70202;52.238;10.680;2023-07-02T02:43:42;99170.81;;;16.53;72.65
80798;BME280;70202;52.238;10.680;2023-07-02T02:44:45;99170.91;;;16.52;72.95
80798;BME280;70202;52.238;10.680;2023-07-02T02:45:45;99166.81;;;16.46;73.09
80798;BME280;70202;52.238;10.680;2023-07-02T02:46:46;99172.16;;;16.47;73.03
80798;BME280;70202;52.238;10.680;2023-07-02T02:47:46;99177.81;;;16.46;72.99
80798;BME280;70202;52.238;10.680;2023-07-02T02:48:47;99165.06;;;16.34;73.00
80798;BME280;70202;52.238;10.680;2023-07-02T02:49:47;99175.56;;;16.40;72.87
80798;BME280;70202;52.238;10.680;2023-07-02T02:50:47;99183.91;;;16.38;73.17
80798;BME280;70202;52.238;10.680;2023-07-02T02:51:48;99179.56;;;16.36;73.03
80798;BME280;70202;52.238;10.680;2023-07-02T02:52:48;99182.41;;;16.34;73.08
80798;BME280;70202;52.238;10.680;2023-07-02T02:53:48;99182.69;;;16.31;73.23
80798;BME280;70202;52.238;10.680;2023-07-02T02:54:50;99180.03;;;16.30;73.16
80798;BME280;70202;52.238;10.680;2023-07-02T02:55:50;99173.81;;;16.28;73.55
80798;BME280;70202;52.238;10.680;2023-07-02T02:56:50;99183.03;;;16.27;73.27
80798;BME280;70202;52.238;10.680;2023-07-02T02:57:51;99182.28;;;16.24;73.23
80798;BME280;70202;52.238;10.680;2023-07-02T02:58:51;99171.53;;;16.21;73.09
80798;BME280;70202;52.238;10.680;2023-07-02T02:59:51;99187.03;;;16.22;73.12
80798;BME280;70202;52.238;10.680;2023-07-02T03:00:52;99179.78;;;16.21;73.34
80798;BME280;70202;52.238;10.680;2023-07-02T03:01:52;99178.91;;;16.21;73.13
80798;BME280;70202;52.238;10.680;2023-07-02T03:02:52;99176.53;;;16.16;73.48
80798;BME280;70202;52.238;10.680;2023-07-02T03:03:53;99188.16;;;16.20;73.57
80798;BME280;70202;52.238;10.680;2023-07-02T03:04:53;99189.03;;;16.20;73.49
80798;BME280;70202;52.238;10.680;2023-07-02T03:05:53;99189.03;;;16.20;73.34
80798;BME280;70202;52.238;10.680;2023-07-02T03:06:54;99183.41;;;16.22;73.49
80798;BME280;70202;52.238;10.680;2023-07-02T03:07:56;99180.66;;;16.22;73.22
80798;BME280;70202;52.238;10.680;2023-07-02T03:08:56;99186.91;;;16.24;73.33
80798;BME280;70202;52.238;10.680;2023-07-02T03:09:56;99180.28;;;16.27;73.40
80798;BME280;70202;52.238;10.680;2023-07-02T03:10:57;99182.28;;;16.24;73.31
80798;BME280;70202;52.238;10.680;2023-07-02T03:11:57;99183.78;;;16.29;73.58
80798;BME280;70202;52.238;10.680;2023-07-02T03:12:58;99181.03;;;16.29;73.26
80798;BME280;70202;52.238;10.680;2023-07-02T03:13:58;99183.56;;;16.32;73.63
80798;BME280;70202;52.238;10.680;2023-07-02T03:14:58;99184.44;;;16.32;73.44
80798;BME280;70202;52.238;10.680;2023-07-02T03:15:59;99153.44;;;16.19;73.39
80798;BME280;70202;52.238;10.680;2023-07-02T03:17:00;99187.81;;;16.36;73.48
80798;BME280;70202;52.238;10.680;2023-07-02T03:18:00;99184.06;;;16.37;73.28
80798;BME280;70202;52.238;10.680;2023-07-02T03:19:00;99183.91;;;16.38;73.28
80798;BME280;70202;52.238;10.680;2023-07-02T03:20:01;99184.78;;;16.39;73.13
80798;BME280;70202;52.238;10.680;2023-07-02T03:21:04;99181.94;;;16.40;73.10
80798;BME280;70202;52.238;10.680;2023-07-02T03:22:04;99179.19;;;16.40;73.46
80798;BME280;70202;52.238;10.680;2023-07-02T03:23:05;99179.06;;;16.42;72.90
80798;BME280;70202;52.238;10.680;2023-07-02T03:24:05;99177.16;;;16.42;73.27
80798;BME280;70202;52.238;10.680;2023-07-02T03:25:06;99180.69;;;16.44;73.38
80798;BME280;70202;52.238;10.680;2023-07-02T03:26:06;99182.44;;;16.45;73.47
80798;BME280;70202;52.238;10.680;2023-07-02T03:27:07;99181.44;;;16.46;73.29
80798;BME280;70202;52.238;10.680;2023-07-02T03:28:07;99177.66;;;16.47;73.21
80798;BME280;70202;52.238;10.680;2023-07-02T03:29:08;99175.78;;;16.48;73.18
80798;BME280;70202;52.238;10.680;2023-07-02T03:30:09;99154.81;;;16.36;73.45
80798;BME280;70202;52.238;10.680;2023-07-02T03:31:09;99178.44;;;16.49;73.32
80798;BME280;70202;52.238;10.680;2023-07-02T03:32:10;99173.66;;;16.52;73.12
80798;BME280;70202;52.238;10.680;2023-07-02T03:33:10;99166.66;;;16.47;73.21
80798;BME280;70202;52.238;10.680;2023-07-02T03:34:10;99173.66;;;16.52;73.41
80798;BME280;70202;52.238;10.680;2023-07-02T03:35:11;99157.69;;;16.45;73.45
80798;BME280;70202;52.238;10.680;2023-07-02T03:36:11;99161.81;;;16.51;73.30
80798;BME280;70202;52.238;10.680;2023-07-02T03:37:11;99168.06;;;16.53;73.43
80798;BME280;70202;52.238;10.680;2023-07-02T03:38:12;99165.19;;;16.55;73.29
80798;BME280;70202;52.238;10.680;2023-07-02T03:39:12;99164.16;;;16.56;73.31
80798;BME280;70202;52.238;10.680;2023-07-02T03:40:13;99166.06;;;16.55;73.07
80798;BME280;70202;52.238;10.680;2023-07-02T03:41:13;99166.91;;;16.56;73.32
80798;BME280;70202;52.238;10.680;2023-07-02T03:42:14;99161.44;;;16.56;73.08
80798;BME280;70202;52.238;10.680;2023-07-02T03:43:14;99165.03;;;16.56;73.01
80798;BME280;70202;52.238;10.680;2023-07-02T03:44:14;99169.56;;;16.57;73.26
80798;BME280;70202;52.238;10.680;2023-07-02T03:45:15;99163.06;;;16.58;73.36
80798;BME280;70202;52.238;10.680;2023-07-02T03:46:15;99178.53;;;16.59;73.04
80798;BME280;70202;52.238;10.680;2023-07-02T03:47:15;99168.41;;;16.60;72.75
80798;BME280;70202;52.238;10.680;2023-07-02T03:48:19;99169.44;;;16.59;73.19
80798;BME280;70202;52.238;10.680;2023-07-02T03:49:19;99169.28;;;16.60;73.13
80798;BME280;70202;52.238;10.680;2023-07-02T03:50:20;99162.06;;;16.59;73.35
80798;BME280;70202;52.238;10.680;2023-07-02T03:51:20;99171.94;;;16.62;72.90
80798;BME280;70202;52.238;10.680;2023-07-02T03:52:21;99173.69;;;16.63;73.49
80798;BME280;70202;52.238;10.680;2023-07-02T03:53:21;99167.16;;;16.64;73.26
80798;BME280;70202;52.238;10.680;2023-07-02T03:54:21;99174.41;;;16.65;73.29
80798;BME280;70202;52.238;10.680;2023-07-02T03:55:22;99181.69;;;16.66;73.28
80798;BME280;70202;52.238;10.680;2023-07-02T03:56:22;99168.91;;;16.65;73.38
80798;BME280;70202;52.238;10.680;2023-07-02T03:57:22;99164.31;;;16.65;73.49
80798;BME280;70202;52.238;10.680;2023-07-02T03:58:23;99175.91;;;16.69;73.29
80798;BME280;70202;52.238;10.680;2023-07-02T03:59:23;99170.31;;;16.70;73.30
80798;BME280;70202;52.238;10.680;2023-07-02T04:00:24;99174.78;;;16.71;73.43
80798;BME280;70202;52.238;10.680;2023-07-02T04:01:24;99166.69;;;16.70;73.36
80798;BME280;70202;52.238;10.680;2023-07-02T04:02:24;99175.56;;;16.73;73.33
80798;BME280;70202;52.238;10.680;2023-07-02T04:03:25;99176.31;;;16.76;73.42
80798;BME280;70202;52.238;10.680;2023-07-02T04:04:25;99179.06;;;16.76;73.41
80798;BME280;70202;52.238;10.680;2023-07-02T04:05:25;99175.31;;;16.77;73.33
80798;BME280;70202;52.238;10.680;2023-07-02T04:06:26;99168.81;;;16.78;73.28
80798;BME280;70202;52.238;10.680;2023-07-02T04:07:26;99178.81;;;16.79;73.63
80798;BME280;70202;52.238;10.680;2023-07-02T04:08:26;99172.56;;;16.77;73.48
80798;BME280;70202;52.238;10.680;2023-07-02T04:09:28;99181.44;;;16.80;73.91
80798;BME280;70202;52.238;10.680;2023-07-02T04:10:29;99178.69;;;16.80;73.28
80798;BME280;70202;52.238;10.680;2023-07-02T04:11:29;99181.31;;;16.82;73.53
80798;BME280;70202;52.238;10.680;2023-07-02T04:12:30;99154.19;;;16.66;73.19
80798;BME280;70202;52.238;10.680;2023-07-02T04:13:31;99185.81;;;16.83;73.50
80798;BME280;70202;52.238;10.680;2023-07-02T04:14:31;99186.69;;;16.83;73.35
80798;BME280;70202;52.238;10.680;2023-07-02T04:15:31;99188.44;;;16.84;73.42
80798;BME280;70202;52.238;10.680;2023-07-02T04:16:32;99182.06;;;16.84;73.46
80798;BME280;70202;52.238;10.680;2023-07-02T04:17:32;99183.81;;;16.85;73.46
80798;BME280;70202;52.238;10.680;2023-07-02T04:18:33;99185.56;;;16.86;73.47
80798;BME280;70202;52.238;10.680;2023-07-02T04:19:33;99182.81;;;16.86;73.39
80798;BME280;70202;52.238;10.680;2023-07-02T04:20:34;99179.06;;;16.87;73.53
80798;BME280;70202;52.238;10.680;2023-07-02T04:21:34;99185.31;;;16.89;72.87
80798;BME280;70202;52.238;10.680;2023-07-02T04:22:35;99183.44;;;16.89;73.36
80798;BME280;70202;52.238;10.680;2023-07-02T04:23:35;99178.69;;;16.91;73.24
80798;BME280;70202;52.238;10.680;2023-07-02T04:24:36;99192.16;;;16.94;73.32
80798;BME280;70202;52.238;10.680;2023-07-02T04:25:36;99189.03;;;16.99;73.22
80798;BME280;70202;52.238;10.680;2023-07-02T04:26:36;99190.53;;;17.03;73.19
80798;BME280;70202;52.238;10.680;2023-07-02T04:27:37;99176.75;;;17.03;73.23
80798;BME280;70202;52.238;10.680;2023-07-02T04:28:37;99185.53;;;17.08;73.28
80798;BME280;70202;52.238;10.680;2023-07-02T04:29:37;99190.91;;;17.10;73.08
80798;BME280;70202;52.238;10.680;2023-07-02T04:30:38;99193.50;;;17.11;73.32
80798;BME280;70202;52.238;10.680;2023-07-02T04:31:38;99194.28;;;17.13;72.94
80798;BME280;70202;52.238;10.680;2023-07-02T04:32:39;99194.28;;;17.13;73.18
80798;BME280;70202;52.238;10.680;2023-07-02T04:33:40;99192.38;;;17.14;73.10
80798;BME280;70202;52.238;10.680;2023-07-02T04:34:40;99188.78;;;17.13;73.12
80798;BME280;70202;52.238;10.680;2023-07-02T04:35:41;99180.13;;;17.07;72.90
80798;BME280;70202;52.238;10.680;2023-07-02T04:36:43;99190.50;;;17.14;73.01
80798;BME280;70202;52.238;10.680;2023-07-02T04:37:44;99193.25;;;17.14;72.83
80798;BME280;70202;52.238;10.680;2023-07-02T04:38:44;99193.25;;;17.14;72.42
80798;BME280;70202;52.238;10.680;2023-07-02T04:39:44;99191.38;;;17.15;72.91
80798;BME280;70202;52.238;10.680;2023-07-02T04:40:45;99181.53;;;17.12;72.89
80798;BME280;70202;52.238;10.680;2023-07-02T04:41:45;99171.25;;;17.03;72.94
80798;BME280;70202;52.238;10.680;2023-07-02T04:42:46;99158.03;;;16.97;72.97
80798;BME280;70202;52.238;10.680;2023-07-02T04:43:57;99164.25;;;16.99;73.03
80798;BME280;70202;52.238;10.680;2023-07-02T04:44:57;99186.13;;;17.12;72.94
80798;BME280;70202;52.238;10.680;2023-07-02T04:46:03;99198.75;;;17.14;72.95
80798;BME280;70202;52.238;10.680;2023-07-02T04:47:03;99195.13;;;17.14;72.87
80798;BME280;70202;52.238;10.680;2023-07-02T04:48:04;99192.38;;;17.14;73.03
80798;BME280;70202;52.238;10.680;2023-07-02T04:49:04;99189.16;;;17.09;72.93
80798;BME280;70202;52.238;10.680;2023-07-02T04:50:05;99196.88;;;17.15;72.87
80798;BME280;70202;52.238;10.680;2023-07-02T04:51:05;99200.50;;;17.15;72.90
80798;BME280;70202;52.238;10.680;2023-07-02T04:52:06;99207.78;;;17.16;72.86
80798;BME280;70202;52.238;10.680;2023-07-02T04:53:06;99201.38;;;17.16;72.90
80798;BME280;70202;52.238;10.680;2023-07-02T04:54:07;99188.88;;;17.12;72.64
80798;BME280;70202;52.238;10.680;2023-07-02T04:55:07;99171.41;;;17.02;72.95
80798;BME280;70202;52.238;10.680;2023-07-02T04:56:08;99204.88;;;17.18;72.76
80798;BME280;70202;52.238;10.680;2023-07-02T04:57:08;99201.28;;;17.17;72.55
80798;BME280;70202;52.238;10.680;2023-07-02T04:58:08;99200.41;;;17.17;72.64
80798;BME280;70202;52.238;10.680;2023-07-02T04:59:09;99197.13;;;17.12;72.42
80798;BME280;70202;52.238;10.680;2023-07-02T05:00:10;99205.03;;;17.16;72.60
80798;BME280;70202;52.238;10.680;2023-07-02T05:01:11;99205.13;;;17.15;72.45
80798;BME280;70202;52.238;10.680;2023-07-02T05:02:11;99198.03;;;17.12;72.53
80798;BME280;70202;52.238;10.680;2023-07-02T05:03:11;99207.78;;;17.16;72.52
80798;BME280;70202;52.238;10.680;2023-07-02T05:04:12;99191.16;;;17.07;72.54
80798;BME280;70202;52.238;10.680;2023-07-02T05:05:12;99204.88;;;17.18;72.68
80798;BME280;70202;52.238;10.680;2023-07-02T05:06:12;99202.28;;;17.16;72.54
80798;BME280;70202;52.238;10.680;2023-07-02T05:07:13;99211.13;;;17.20;72.78
80798;BME280;70202;52.238;10.680;2023-07-02T05:08:14;99201.88;;;17.21;72.74
80798;BME280;70202;52.238;10.680;2023-07-02T05:09:15;99201.88;;;17.21;72.62
80798;BME280;70202;52.238;10.680;2023-07-02T05:10:15;99210.00;;;17.22;72.75
80798;BME280;70202;52.238;10.680;2023-07-02T05:11:15;99194.38;;;17.23;72.90
80798;BME280;70202;52.238;10.680;2023-07-02T05:12:16;99197.88;;;17.25;72.66
80798;BME280;70202;52.238;10.680;2023-07-02T05:13:16;99209.00;;;17.23;72.66
80798;BME280;70202;52.238;10.680;2023-07-02T05:14:16;99203.25;;;17.27;72.66
80798;BME280;70202;52.238;10.680;2023-07-02T05:15:17;99199.47;;;17.28;72.57
80798;BME280;70202;52.238;10.680;2023-07-02T05:16:17;99204.97;;;17.28;72.55
80798;BME280;70202;52.238;10.680;2023-07-02T05:17:18;99203.97;;;17.29;72.75
80798;BME280;70202;52.238;10.680;2023-07-02T05:18:18;99204.72;;;17.31;72.58
80798;BME280;70202;52.238;10.680;2023-07-02T05:19:18;99198.22;;;17.32;73.03